Etusivu
METAR-TAF:

METAR-TAF

Lentoasemat :

Chengdu Shuangliun kansainvälinen lentoasema

Chengdu, Kiina

Leveyspiiri: 30-40N, Pituuspiiri: 104-01E, korkeus merenpinnasta: 508 m

Tämänhetkinen sää

Tämä raportti tehtiin 1 tunti ja 0 minuuttia sitten, kello 06.00 UTC
Tuuli 4 kn eri suunnista
Lämpötila 35°C
Kosteus 32%
Ilmanpaine 1006 hPa
Näkyvyys 10 km tai enemmän
Muutamia pilviä 2600 ft:n korkeudessa

METAR: ZUUU 220600Z VRB02MPS 9999 FEW026 35/16 Q1006 NOSIG

Aika: 15:00 (07:00 UTC)

Sääennuste

Tämä raportti tehtiin 3 tuntia ja 56 minuuttia sitten, kello 03.04 UTC
Ennuste voimassa 22. päivästä klo 06 UTC - 23. päivään klo 06 UTC
Tuuli 6 kn lounaasta
Näkyvyys: 6000 m
Hajanaisia pilviä 4000 ft:n korkeudessa

TAF: ZUUU 220304Z 2206/2306 22003MPS 6000 SCT040 TX34/2207Z TN24/2222Z

Säähavainnot ja -ennusteet yli 4000 lentoasemalta (METAR- ja TAF-raportit).

Käytössä olevat sääasemat on merkitty karttaan keltaisilla ja punaisilla pisteillä.

Aseta hiiri pisteen päälle nähdäksesi sääaseman nimen.

Klikkaa sitten nähdäksesi säähavainnot ja -ennusteet.

Kartan vaihtaminen: klikkaa mustalla rastilla varustettuja vihreitä pisteitä, niin voit zoomata sisään; viivalla varustettua vihreää pistettä, niin voit zoomata ulos tai vihreitä nuolia, niin pääset viereisille kartoille.


METAR-TAF: